createdAt,value
2022-08-20T00:02:40.563Z,99900.50
2022-08-20T00:05:46.630Z,99905.25
2022-08-20T00:08:48.556Z,99895.31
2022-08-20T00:11:50.030Z,99927.66
2022-08-20T00:14:51.528Z,99933.94
2022-08-20T00:17:52.997Z,99941.84
2022-08-20T00:20:56.256Z,99941.75
2022-08-20T00:23:58.028Z,99939.84
2022-08-20T00:26:59.443Z,99935.25
2022-08-20T00:30:01.249Z,99949.78
2022-08-20T00:33:07.477Z,99948.19
2022-08-20T00:36:09.304Z,99954.09
2022-08-20T00:42:26.386Z,99918.69
2022-08-20T00:45:30.312Z,99943.50
2022-08-20T00:48:35.923Z,99938.22
2022-08-20T00:51:54.510Z,99857.84
2022-08-20T00:54:59.738Z,99944.25
2022-08-20T00:58:07.000Z,99946.50
2022-08-20T01:01:27.517Z,99925.41
2022-08-20T01:04:31.508Z,99932.22
2022-08-20T01:07:33.024Z,99911.88
2022-08-20T01:10:38.039Z,99890.91
2022-08-20T01:13:41.022Z,99882.16
2022-08-20T01:16:44.656Z,99883.75
2022-08-20T01:19:52.746Z,99863.06
2022-08-20T01:23:20.957Z,99857.91
2022-08-20T01:26:30.295Z,99765.53
2022-08-20T01:29:37.217Z,99840.28
2022-08-20T01:32:40.503Z,99844.84
2022-08-20T01:35:43.071Z,99835.00
2022-08-20T01:38:54.238Z,99841.13
2022-08-20T01:42:12.974Z,99823.06
2022-08-20T01:45:14.614Z,99843.72
2022-08-20T01:48:19.455Z,99846.56
2022-08-20T01:51:26.565Z,99850.38
2022-08-20T01:54:28.596Z,99849.66
2022-08-20T01:57:30.199Z,99848.78
2022-08-20T02:00:31.996Z,99869.59
2022-08-20T02:03:37.512Z,99868.81
2022-08-20T02:06:56.888Z,99842.44
2022-08-20T02:09:59.344Z,99838.03
2022-08-20T02:13:01.442Z,99858.28
2022-08-20T02:16:03.960Z,99869.59
2022-08-20T02:19:11.798Z,99870.59
2022-08-20T02:22:21.136Z,99854.00
2022-08-20T02:25:26.044Z,99863.84
2022-08-20T02:28:27.588Z,99870.72
2022-08-20T02:31:32.947Z,99859.44
2022-08-20T02:34:36.449Z,99869.41
2022-08-20T02:37:38.331Z,99874.81
2022-08-20T02:40:40.124Z,99884.38
2022-08-20T02:43:41.581Z,99886.63
2022-08-20T02:46:43.000Z,99896.03
2022-08-20T02:49:44.527Z,99884.31
2022-08-20T02:52:51.780Z,99888.63
2022-08-20T02:55:53.574Z,99902.87
2022-08-20T02:58:55.087Z,99899.69
2022-08-20T03:02:00.331Z,99892.56
2022-08-20T03:05:03.346Z,99886.78
2022-08-20T03:08:06.548Z,99912.13
2022-08-20T03:11:08.164Z,99923.56
2022-08-20T03:14:09.611Z,99923.66
2022-08-20T03:17:11.269Z,99936.31
2022-08-20T03:20:13.577Z,99951.47
2022-08-20T03:23:17.168Z,99951.72
2022-08-20T03:26:18.645Z,99955.84
2022-08-20T03:29:20.581Z,99958.19
2022-08-20T03:32:22.199Z,99983.81
2022-08-20T03:35:26.680Z,99991.31
2022-08-20T03:38:32.426Z,99934.72
2022-08-20T03:41:34.880Z,99970.37
2022-08-20T03:44:36.338Z,99966.19
2022-08-20T03:47:38.877Z,99963.41
2022-08-20T03:50:40.693Z,99976.91
2022-08-20T03:53:42.130Z,99977.13
2022-08-20T03:56:43.609Z,99968.75
2022-08-20T03:59:45.157Z,99965.22
2022-08-20T04:02:47.267Z,99975.69
2022-08-20T04:05:49.976Z,99964.44
2022-08-20T04:08:53.880Z,99962.00
2022-08-20T04:11:55.310Z,99968.06
2022-08-20T04:14:56.759Z,99978.03
2022-08-20T04:17:58.497Z,99979.38
2022-08-20T04:21:00.061Z,99968.91
2022-08-20T04:24:05.017Z,99955.00
2022-08-20T04:27:06.796Z,99931.59
2022-08-20T04:30:11.215Z,99921.72
2022-08-20T04:33:38.386Z,99906.31
2022-08-20T04:36:39.792Z,99895.72
2022-08-20T04:39:41.382Z,99927.53
2022-08-20T04:42:43.594Z,99946.13
2022-08-20T04:45:45.187Z,99948.66
2022-08-20T04:48:48.731Z,99954.94
2022-08-20T04:51:52.621Z,99953.97
2022-08-20T04:54:54.959Z,99940.03
2022-08-20T04:58:02.879Z,99937.44
2022-08-20T05:01:09.534Z,99936.72
2022-08-20T05:04:11.126Z,99947.31
2022-08-20T05:07:13.235Z,99943.84
2022-08-20T05:10:17.879Z,99962.63
2022-08-20T05:13:22.148Z,99967.53
2022-08-20T05:16:25.665Z,99962.19
2022-08-20T05:19:27.174Z,99951.97
2022-08-20T05:22:30.754Z,99947.16
2022-08-20T05:25:33.171Z,99964.03
2022-08-20T05:28:54.366Z,99956.78
2022-08-20T05:31:57.360Z,99948.13
2022-08-20T05:34:59.007Z,99954.53
2022-08-20T05:38:02.175Z,99938.38
2022-08-20T05:41:05.517Z,99949.00
2022-08-20T05:44:08.965Z,99946.28
2022-08-20T05:47:10.388Z,99942.69
2022-08-20T05:50:23.195Z,99945.41
2022-08-20T05:53:25.375Z,99944.09
2022-08-20T05:56:28.518Z,99934.38
2022-08-20T05:59:30.008Z,99954.84
2022-08-20T06:02:31.577Z,99935.53
2022-08-20T06:05:33.307Z,99952.94
2022-08-20T06:08:35.616Z,99952.59
2022-08-20T06:11:37.609Z,99937.81
2022-08-20T06:14:39.079Z,99944.53
2022-08-20T06:17:40.703Z,99933.53
2022-08-20T06:20:43.749Z,99939.91
2022-08-20T06:23:56.958Z,99953.53
2022-08-20T06:27:03.391Z,99949.22
2022-08-20T06:30:05.911Z,99957.22
2022-08-20T06:33:07.508Z,99948.97
2022-08-20T06:36:09.127Z,99956.56
2022-08-20T06:39:10.603Z,99945.53
2022-08-20T06:42:12.292Z,99960.44
2022-08-20T06:45:20.500Z,99960.69
2022-08-20T06:48:22.099Z,99974.72
2022-08-20T06:51:42.244Z,99970.81
2022-08-20T06:54:45.168Z,99980.22
2022-08-20T06:57:46.715Z,99993.37
2022-08-20T07:00:48.802Z,99986.22
2022-08-20T07:03:54.926Z,99996.72
2022-08-20T07:06:57.378Z,100010.66
2022-08-20T07:10:09.409Z,100007.56
2022-08-20T07:13:12.475Z,100018.44
2022-08-20T07:16:13.932Z,100031.22
2022-08-20T07:19:15.617Z,100028.47
2022-08-20T07:22:17.107Z,100015.41
2022-08-20T07:25:21.245Z,100012.56
2022-08-20T07:28:26.260Z,100019.00
2022-08-20T07:31:27.775Z,100017.31
2022-08-20T07:34:32.914Z,100027.63
2022-08-20T07:37:39.343Z,100007.16
2022-08-20T07:40:40.812Z,100054.69
2022-08-20T07:43:43.740Z,100054.41
2022-08-20T07:46:45.416Z,100063.56
2022-08-20T07:49:49.217Z,100062.25
2022-08-20T07:52:51.162Z,100111.91
2022-08-20T07:55:59.062Z,100149.56
2022-08-20T07:59:01.026Z,100184.84
2022-08-20T08:02:02.801Z,100206.06
2022-08-20T08:05:04.967Z,100183.25
2022-08-20T08:08:09.666Z,100161.84
2022-08-20T08:11:11.539Z,100167.97
2022-08-20T08:14:16.510Z,100181.97
2022-08-20T08:17:18.974Z,100199.16
2022-08-20T08:20:20.504Z,100170.91
2022-08-20T08:27:20.148Z,100241.34
2022-08-20T08:30:21.604Z,100216.78
2022-08-20T08:33:26.455Z,100174.88
2022-08-20T08:36:28.281Z,100173.59
2022-08-20T08:39:34.885Z,100170.03
2022-08-20T08:42:44.491Z,100174.34
2022-08-20T08:45:49.616Z,100185.69
2022-08-20T08:48:54.633Z,100174.84
2022-08-20T08:52:03.213Z,100147.03
2022-08-20T08:55:09.861Z,100157.91
2022-08-20T08:58:16.775Z,100131.25
2022-08-20T09:01:55.957Z,100127.47
2022-08-20T09:04:44.811Z,100120.22
2022-08-20T09:07:51.020Z,100124.44
2022-08-20T09:10:54.848Z,100130.62
2022-08-20T09:13:56.576Z,100162.06
2022-08-20T09:16:58.182Z,100197.13
2022-08-20T09:19:59.653Z,100205.28
2022-08-20T09:23:01.198Z,100230.41
2022-08-20T09:26:05.432Z,100246.75
2022-08-20T09:29:07.826Z,100244.16
2022-08-20T09:32:13.840Z,100228.47
2022-08-20T09:35:15.931Z,100224.91
2022-08-20T09:38:17.632Z,100209.03
2022-08-20T09:41:19.237Z,100164.31
2022-08-20T09:44:20.664Z,100182.22
2022-08-20T09:47:22.438Z,100169.47
2022-08-20T09:50:26.297Z,100158.31
2022-08-20T09:53:29.236Z,100148.72
2022-08-20T09:56:34.585Z,100119.13
2022-08-20T09:59:36.909Z,100101.19
2022-08-20T10:02:38.913Z,100084.47
2022-08-20T10:05:40.367Z,100071.28
2022-08-20T10:08:42.975Z,100070.34
2022-08-20T10:11:44.622Z,100031.25
2022-08-20T10:14:46.066Z,99998.94
2022-08-20T10:17:47.581Z,99994.53
2022-08-20T10:20:49.117Z,99964.22
2022-08-20T10:23:50.596Z,100001.56
2022-08-20T10:26:56.044Z,100016.03
2022-08-20T10:29:57.507Z,100016.56
2022-08-20T10:32:59.038Z,100032.56
2022-08-20T10:36:10.324Z,100031.75
2022-08-20T10:39:11.874Z,100075.97
2022-08-20T10:42:13.921Z,100081.63
2022-08-20T10:45:16.537Z,100082.41
2022-08-20T10:48:21.381Z,100077.97
2022-08-20T10:58:58.603Z,100104.87
2022-08-20T11:02:00.207Z,100113.00
2022-08-20T11:08:53.590Z,100129.72
2022-08-20T11:11:58.684Z,100133.38
2022-08-20T11:18:47.420Z,100133.72
2022-08-20T11:21:49.238Z,100125.78
2022-08-20T11:28:41.728Z,100124.91
2022-08-20T11:31:43.257Z,100126.66
2022-08-20T11:34:45.163Z,100102.00
2022-08-20T11:37:46.609Z,100114.31
2022-08-20T11:40:48.119Z,100115.25
2022-08-20T11:44:10.451Z,100102.03
2022-08-20T11:47:40.472Z,100119.25
2022-08-20T11:51:04.081Z,100096.28
2022-08-20T11:54:05.818Z,100111.56
2022-08-20T11:57:08.379Z,100081.84
2022-08-20T12:00:14.775Z,100103.62
2022-08-20T12:03:18.665Z,100099.13
2022-08-20T12:06:20.342Z,100048.09
2022-08-20T12:09:24.761Z,100087.03
2022-08-20T12:12:26.412Z,100073.47
2022-08-20T12:15:28.177Z,100053.91
2022-08-20T12:18:29.771Z,100078.31
2022-08-20T12:24:59.980Z,100058.53
2022-08-20T12:28:01.802Z,100060.97
2022-08-20T12:31:03.295Z,100053.28
2022-08-20T12:34:04.715Z,100040.78
2022-08-20T12:37:14.004Z,100040.81
2022-08-20T12:40:32.935Z,100035.03
2022-08-20T12:43:34.750Z,100000.97
2022-08-20T12:54:31.681Z,100009.47
2022-08-20T12:58:19.556Z,99997.69
2022-08-20T13:01:21.700Z,99994.13
2022-08-20T13:04:23.960Z,99996.38
2022-08-20T13:07:25.714Z,99992.78
2022-08-20T13:10:32.186Z,99976.16
2022-08-20T13:13:33.679Z,99999.56
2022-08-20T13:16:35.314Z,99973.81
2022-08-20T13:19:38.531Z,99985.41
2022-08-20T13:22:53.667Z,99979.69
2022-08-20T13:26:07.730Z,99972.94
2022-08-20T13:29:09.258Z,99985.31
2022-08-20T13:32:38.907Z,99982.88
2022-08-20T13:35:40.544Z,99985.16
2022-08-20T13:38:42.136Z,99975.44
2022-08-20T13:41:43.702Z,99916.75
2022-08-20T13:44:45.177Z,99981.59
2022-08-20T13:47:46.591Z,99979.75
2022-08-20T13:50:53.986Z,99992.00
2022-08-20T13:53:56.469Z,99989.88
2022-08-20T14:01:14.477Z,100015.66
2022-08-20T14:04:16.045Z,100023.63
2022-08-20T14:07:32.200Z,100035.34
2022-08-20T14:10:36.872Z,100031.38
2022-08-20T14:13:38.334Z,99976.28
2022-08-20T14:16:39.870Z,99961.53
2022-08-20T14:20:13.363Z,99989.03
2022-08-20T14:23:15.618Z,99989.03
2022-08-20T14:26:17.063Z,99985.84
2022-08-20T14:29:18.695Z,99965.97
2022-08-20T14:32:20.377Z,99950.63
2022-08-20T14:35:22.772Z,99957.03
2022-08-20T14:38:24.282Z,99976.19
2022-08-20T14:41:25.798Z,99956.44
2022-08-20T14:44:30.038Z,99981.34
2022-08-20T14:47:35.459Z,99982.78
2022-08-20T14:50:37.129Z,99981.94
2022-08-20T14:53:40.719Z,99961.75
2022-08-20T14:56:42.288Z,99985.63
2022-08-20T14:59:50.096Z,99980.56
2022-08-20T15:02:55.077Z,99992.66
2022-08-20T15:05:58.483Z,100004.84
2022-08-20T15:12:28.181Z,100010.75
2022-08-20T15:15:29.688Z,100007.63
2022-08-20T15:18:58.141Z,100007.16
2022-08-20T15:22:09.041Z,100014.44
2022-08-20T15:25:13.835Z,100018.38
2022-08-20T15:28:15.275Z,100016.47
2022-08-20T15:31:16.712Z,99998.50
2022-08-20T15:34:18.523Z,99993.03
2022-08-20T15:37:23.113Z,100007.75
2022-08-20T15:40:28.656Z,100008.38
2022-08-20T15:43:32.033Z,100008.84
2022-08-20T15:46:38.987Z,100011.16
2022-08-20T15:50:04.185Z,100010.72
2022-08-20T15:53:12.706Z,99997.50
2022-08-20T15:56:34.191Z,100016.13
2022-08-20T15:59:50.753Z,100022.03
2022-08-20T16:03:12.226Z,100014.28
2022-08-20T16:06:18.886Z,100027.13
2022-08-20T16:09:41.072Z,100019.31
2022-08-20T16:12:47.171Z,100025.94
2022-08-20T16:15:49.854Z,100001.41
2022-08-20T16:18:52.558Z,100030.31
2022-08-20T16:21:57.105Z,100018.28
2022-08-20T16:24:58.563Z,100026.72
2022-08-20T16:28:12.110Z,100014.03
2022-08-20T16:31:18.473Z,100018.97
2022-08-20T16:34:32.416Z,100018.66
2022-08-20T16:37:52.849Z,100032.97
2022-08-20T16:41:01.609Z,100031.38
2022-08-20T16:44:10.047Z,99910.59
2022-08-20T16:47:18.725Z,100022.88
2022-08-20T16:50:58.178Z,100031.69
2022-08-20T16:53:59.625Z,100032.34
2022-08-20T16:57:05.042Z,100031.69
2022-08-20T17:08:02.042Z,100035.38
2022-08-20T17:11:11.003Z,100031.81
2022-08-20T17:14:16.123Z,100032.94
2022-08-20T17:17:22.510Z,100026.50
2022-08-20T17:20:29.298Z,100026.25
2022-08-20T17:24:17.436Z,100028.97
2022-08-20T17:27:59.660Z,99964.06
2022-08-20T17:31:58.518Z,100032.56
2022-08-20T17:35:54.514Z,100035.19
2022-08-20T17:47:58.773Z,100029.94
2022-08-20T17:51:24.655Z,100019.59
2022-08-20T17:54:53.133Z,99854.78
2022-08-20T17:58:21.058Z,100013.19
2022-08-20T18:01:57.659Z,100036.97
2022-08-20T18:13:22.922Z,100036.22
2022-08-20T18:17:08.217Z,100013.19
2022-08-20T18:20:56.921Z,100013.34
2022-08-20T18:24:29.842Z,99992.66
2022-08-20T18:27:42.289Z,99988.63
2022-08-20T18:31:07.845Z,99985.78
2022-08-20T18:34:18.115Z,99977.41
2022-08-20T18:37:26.496Z,99991.94
2022-08-20T18:40:54.880Z,99979.66
2022-08-20T18:44:39.686Z,100010.03
2022-08-20T18:51:51.408Z,100015.44
2022-08-20T18:54:59.507Z,100013.34
2022-08-20T19:02:36.109Z,99988.97
2022-08-20T19:06:27.223Z,100019.47
2022-08-20T19:17:47.030Z,100017.03
2022-08-20T19:20:58.864Z,100011.97
2022-08-20T19:24:19.182Z,99827.03
2022-08-20T19:27:21.300Z,100007.78
2022-08-20T19:30:30.630Z,99983.09
2022-08-20T19:34:07.281Z,99979.16
2022-08-20T19:37:50.478Z,100002.53
2022-08-20T19:41:29.257Z,100006.69
2022-08-20T19:44:53.001Z,100005.25
2022-08-20T19:52:04.107Z,99989.59
2022-08-20T19:55:18.487Z,99996.38
2022-08-20T19:58:26.423Z,99987.53
2022-08-20T20:01:28.541Z,99909.16
2022-08-20T20:04:41.031Z,99980.38
2022-08-20T20:07:58.430Z,99993.44
2022-08-20T20:11:00.555Z,99985.91
2022-08-20T20:14:07.483Z,99988.88
2022-08-20T20:17:14.804Z,99983.81
2022-08-20T20:20:25.063Z,99980.53
2022-08-20T20:23:45.548Z,99982.59
2022-08-20T20:26:49.369Z,99984.56
2022-08-20T20:29:59.391Z,99979.75
2022-08-20T20:33:15.106Z,99979.16
2022-08-20T20:36:29.678Z,99974.47
2022-08-20T20:39:35.623Z,99980.88
2022-08-20T20:42:37.430Z,99975.47
2022-08-20T20:45:44.034Z,99974.59
2022-08-20T20:48:49.840Z,99968.44
2022-08-20T20:51:57.343Z,99968.31
2022-08-20T20:55:11.883Z,99966.34
2022-08-20T20:58:13.568Z,99964.63
2022-08-20T21:01:18.942Z,99949.03
2022-08-20T21:04:42.738Z,99960.19
2022-08-20T21:07:50.543Z,99957.50
2022-08-20T21:10:52.432Z,99967.97
2022-08-20T21:13:53.884Z,99965.63
2022-08-20T21:16:57.751Z,99966.88
2022-08-20T21:19:59.259Z,99946.19
2022-08-20T21:23:00.707Z,99957.63
2022-08-20T21:26:03.627Z,99961.66
2022-08-20T21:29:06.887Z,99960.56
2022-08-20T21:32:08.710Z,99966.50
2022-08-20T21:35:14.759Z,99957.75
2022-08-20T21:38:16.234Z,99958.81
2022-08-20T21:41:17.885Z,99949.34
2022-08-20T21:44:24.842Z,99952.03
2022-08-20T21:47:26.828Z,99961.88
2022-08-20T21:50:28.327Z,99976.38
2022-08-20T21:53:29.771Z,99971.37
2022-08-20T21:56:32.168Z,99975.03
2022-08-20T21:59:36.622Z,99980.06
2022-08-20T22:02:58.685Z,99982.78
2022-08-20T22:06:20.250Z,99955.19
2022-08-20T22:09:22.021Z,99952.84
2022-08-20T22:12:24.901Z,99975.97
2022-08-20T22:15:26.418Z,99963.06
2022-08-20T22:18:28.473Z,99977.34
2022-08-20T22:21:32.872Z,99983.84
2022-08-20T22:24:34.870Z,99975.09
2022-08-20T22:27:36.391Z,99979.13
2022-08-20T22:30:41.787Z,99983.44
2022-08-20T22:33:43.974Z,99975.66
2022-08-20T22:36:46.027Z,99957.72
2022-08-20T22:39:47.540Z,99958.84
2022-08-20T22:42:49.082Z,99955.41
2022-08-20T22:45:53.760Z,99958.84
2022-08-20T22:48:56.364Z,99959.56
2022-08-20T22:52:40.183Z,99944.72
2022-08-20T22:56:21.956Z,99943.72
2022-08-20T22:59:24.585Z,99954.53
2022-08-20T23:02:26.266Z,99936.53
2022-08-20T23:05:31.338Z,99949.81
2022-08-20T23:08:33.587Z,99945.66
2022-08-20T23:11:35.086Z,99929.16
2022-08-20T23:14:37.844Z,99936.41
2022-08-20T23:17:39.533Z,99934.44
2022-08-20T23:20:52.644Z,99936.28
2022-08-20T23:23:54.113Z,99917.19
2022-08-20T23:26:56.102Z,99931.50
2022-08-20T23:29:57.772Z,99935.06
2022-08-20T23:33:01.659Z,99917.50
2022-08-20T23:36:07.007Z,99920.72
2022-08-20T23:39:09.156Z,99918.22
2022-08-20T23:42:10.655Z,99918.44
2022-08-20T23:45:12.452Z,99918.44
2022-08-20T23:48:14.173Z,99901.09
2022-08-20T23:51:15.963Z,99916.94
2022-08-20T23:54:57.373Z,99903.06
2022-08-20T23:57:59.059Z,99916.44
